In Rescue
 
Open Full Screen Window  High Contrast Mode
June 22, 2024 10:33 PM EDT
Weather Information
Wind Direction
  ---
Wind Speed
  00 kt (0 mph)
Wind Gust
  00 kt (0 mph)
Altimeter
29.71 in
Visibility
10 SM
Temperature
24° C
75° F
Dewpoint
22° C
72° F
Humidity
89%
Sky Condition
Overcast @ 8,000 ft
VFR

METAR KY70 230233Z AUTO 00000KT 10SM OVC080 24/22 A2971 RMK AO2

FAA Disclaimer: The data displayed is for advisory purposes only and is not to be used for flight planning or operations.